Time;durP1;ratioP1;P1;durP2;ratioP2;P2;SDS_P1;SDS_P2;PMS_P1;PMS_P2;Temp;Humidity;BMP_temperature;BMP_pressure;BME280_temperature;BME280_humidity;BME280_pressure;Samples;Min_cycle;Max_cycle;Signal;HPM_P1;HPM_P2
2022/11/03 00:01:13;;;;;;;1.90;1.10;;;10.30;1.00;;;;;;5119911;28;20427;-74
2022/11/03 00:03:40;;;;;;;2.40;1.00;;;10.30;1.00;;;;;;5119793;28;20424;-74
2022/11/03 00:06:07;;;;;;;3.10;1.20;;;10.30;2.00;;;;;;5120353;28;20431;-74
2022/11/03 00:08:42;;;;;;;2.00;1.20;;;10.40;1.00;;;;;;5119729;28;20532;-74
2022/11/03 00:11:11;;;;;;;4.33;1.20;;;10.40;1.00;;;;;;5119489;28;20867;-74
2022/11/03 00:13:40;;;;;;;1.65;1.10;;;10.40;1.00;;;;;;5118192;28;20720;-75
2022/11/03 00:16:11;;;;;;;3.03;1.00;;;10.30;1.00;;;;;;5119731;28;20416;-74
2022/11/03 00:18:39;;;;;;;2.90;1.17;;;10.20;1.00;;;;;;5120212;28;20420;-75
2022/11/03 00:21:08;;;;;;;2.80;1.35;;;10.20;1.00;;;;;;5119967;28;20481;-72
2022/11/03 00:23:39;;;;;;;3.13;1.38;;;10.20;1.00;;;;;;5120593;28;20446;-74
2022/11/03 00:26:09;;;;;;;2.90;1.00;;;10.10;1.00;;;;;;5120020;28;20864;-74
2022/11/03 00:28:37;;;;;;;3.90;1.40;;;10.00;3.10;;;;;;5119899;28;20485;-74
2022/11/03 00:31:08;;;;;;;2.80;1.20;;;10.00;13.30;;;;;;5120047;28;20445;-74
2022/11/03 00:33:35;;;;;;;3.97;1.30;;;9.90;19.10;;;;;;5119910;28;20412;-74
2022/11/03 00:36:03;;;;;;;2.00;1.20;;;10.00;13.10;;;;;;5119614;28;20920;-74
2022/11/03 00:38:30;;;;;;;4.05;1.00;;;9.90;14.40;;;;;;5120158;28;20463;-74
2022/11/03 00:41:00;;;;;;;2.70;1.50;;;9.90;18.90;;;;;;5119923;28;20423;-73
2022/11/03 00:43:29;;;;;;;4.40;1.33;;;9.90;26.30;;;;;;5120101;28;20908;-73
2022/11/03 00:45:56;;;;;;;2.90;1.10;;;9.90;24.10;;;;;;5120230;28;20468;-73
2022/11/03 00:48:29;;;;;;;2.40;1.10;;;9.90;23.20;;;;;;5119686;28;20425;-74
2022/11/03 00:51:04;;;;;;;2.90;1.27;;;9.90;25.20;;;;;;5119121;28;20459;-74
2022/11/03 00:53:32;;;;;;;3.47;1.27;;;9.90;27.40;;;;;;5117698;28;20529;-73
2022/11/03 00:56:01;;;;;;;3.58;1.15;;;9.90;28.20;;;;;;5119368;28;20458;-74
2022/11/03 00:58:28;;;;;;;2.10;1.20;;;10.00;24.20;;;;;;5119346;28;20820;-74
2022/11/03 01:01:03;;;;;;;2.28;1.10;;;10.00;12.50;;;;;;5118737;28;20514;-74
2022/11/03 01:03:32;;;;;;;1.90;1.10;;;9.90;8.50;;;;;;5118286;28;20471;-74
2022/11/03 01:08:44;;;;;;;3.42;1.40;;;9.90;19.40;;;;;;5117397;28;20849;-74
2022/11/03 01:13:59;;;;;;;2.00;1.33;;;9.70;19.00;;;;;;5118053;28;20450;-74
2022/11/03 01:16:27;;;;;;;4.30;1.35;;;9.60;20.50;;;;;;5118042;28;20844;-74
2022/11/03 01:18:55;;;;;;;2.70;1.50;;;9.50;27.50;;;;;;5118846;28;20417;-73
2022/11/03 01:21:22;;;;;;;3.50;1.40;;;9.50;51.70;;;;;;5118553;28;20786;-73
2022/11/03 01:23:49;;;;;;;4.50;1.70;;;9.50;66.70;;;;;;5118437;28;20689;-74
2022/11/03 01:26:18;;;;;;;2.60;1.50;;;9.40;60.50;;;;;;5118189;28;20475;-73
2022/11/03 01:28:46;;;;;;;3.45;1.58;;;9.40;54.20;;;;;;5119068;28;20749;-74
2022/11/03 01:31:16;;;;;;;3.92;1.33;;;9.40;64.10;;;;;;5118572;28;20734;-73
2022/11/03 01:33:44;;;;;;;4.93;1.50;;;9.40;78.30;;;;;;5119093;28;20510;-74
2022/11/03 01:36:12;;;;;;;3.60;1.50;;;9.40;71.50;;;;;;5118161;28;20539;-73
2022/11/03 01:38:40;;;;;;;3.78;1.45;;;9.20;86.40;;;;;;5117987;28;20812;-73
2022/11/03 01:41:10;;;;;;;2.42;1.30;;;9.20;95.60;;;;;;5118553;28;20420;-73
2022/11/03 01:43:40;;;;;;;3.28;1.50;;;9.20;99.90;;;;;;5117372;28;20424;-73
2022/11/03 01:46:15;;;;;;;4.30;1.23;;;9.10;99.90;;;;;;5117360;28;20562;-74
2022/11/03 01:48:48;;;;;;;1.80;1.20;;;9.10;99.90;;;;;;5117547;28;20499;-74
2022/11/03 01:51:18;;;;;;;2.78;1.10;;;9.10;99.90;;;;;;5118103;28;20484;-73
2022/11/03 01:53:47;;;;;;;4.90;1.10;;;9.10;99.90;;;;;;5117862;28;20459;-73
2022/11/03 01:56:16;;;;;;;3.63;1.10;;;9.10;99.90;;;;;;5118042;28;20424;-73
2022/11/03 01:58:49;;;;;;;3.22;1.10;;;9.20;99.90;;;;;;5118044;28;20464;-73
2022/11/03 02:01:19;;;;;;;3.22;0.90;;;9.20;99.90;;;;;;5118041;28;20845;-74
2022/11/03 02:03:50;;;;;;;2.75;1.00;;;9.20;99.90;;;;;;5117632;28;20452;-74
2022/11/03 02:06:20;;;;;;;3.90;1.00;;;9.20;99.90;;;;;;5117000;28;20724;-74
2022/11/03 02:08:50;;;;;;;1.80;0.90;;;9.20;97.10;;;;;;5117369;28;20473;-73
2022/11/03 02:14:03;;;;;;;2.00;0.80;;;9.40;99.90;;;;;;5116992;28;20461;-73
2022/11/03 02:16:32;;;;;;;2.55;0.80;;;9.50;98.00;;;;;;5117395;28;20476;-73
2022/11/03 02:19:02;;;;;;;2.92;0.80;;;9.50;92.90;;;;;;5117594;28;20471;-73
2022/11/03 02:21:34;;;;;;;1.65;0.80;;;9.70;87.40;;;;;;5117704;28;20421;-73
2022/11/03 02:24:07;;;;;;;2.35;0.90;;;9.90;70.80;;;;;;5117182;28;20420;-73
2022/11/03 02:26:36;;;;;;;1.70;0.73;;;9.90;41.80;;;;;;5117100;28;20529;-73
2022/11/03 02:29:03;;;;;;;2.80;0.88;;;9.80;35.90;;;;;;5117353;28;20844;-74
2022/11/03 02:31:38;;;;;;;1.30;0.70;;;9.80;39.90;;;;;;5117693;28;20416;-74
2022/11/03 02:34:12;;;;;;;1.00;0.70;;;9.90;34.70;;;;;;5117437;28;20412;-74
2022/11/03 02:36:46;;;;;;;0.93;0.60;;;9.80;39.50;;;;;;5117063;28;20465;-74
2022/11/03 02:39:18;;;;;;;1.40;0.70;;;9.80;33.60;;;;;;5116360;28;20424;-74
2022/11/03 02:41:49;;;;;;;2.85;0.70;;;9.80;34.50;;;;;;5117177;28;20415;-74
2022/11/03 02:44:18;;;;;;;2.90;0.70;;;9.70;23.90;;;;;;5116696;28;20621;-74
2022/11/03 02:46:50;;;;;;;2.70;0.80;;;9.50;35.40;;;;;;5117103;28;20852;-74
2022/11/03 02:49:17;;;;;;;1.98;0.70;;;9.50;58.70;;;;;;5116554;28;20444;-73
2022/11/03 02:51:45;;;;;;;1.42;0.80;;;9.50;60.60;;;;;;5115907;28;20424;-73
2022/11/03 02:54:20;;;;;;;1.90;0.75;;;9.50;64.30;;;;;;5116570;28;20460;-73
2022/11/03 02:56:52;;;;;;;2.00;0.70;;;9.60;59.20;;;;;;5116942;28;20883;-74
2022/11/03 02:59:23;;;;;;;2.33;0.70;;;9.80;57.00;;;;;;5117056;28;20716;-73
2022/11/03 03:01:54;;;;;;;2.50;0.80;;;9.80;33.20;;;;;;5117353;28;20420;-73
2022/11/03 03:04:27;;;;;;;2.08;0.90;;;9.90;29.30;;;;;;5116949;28;20840;-73
2022/11/03 03:06:59;;;;;;;2.28;0.70;;;9.90;24.10;;;;;;5117497;28;20515;-73
2022/11/03 03:09:29;;;;;;;1.10;0.60;;;9.70;27.90;;;;;;5116347;28;20515;-74
2022/11/03 03:12:00;;;;;;;1.73;0.80;;;9.70;44.30;;;;;;5116774;28;20412;-73
2022/11/03 03:14:30;;;;;;;2.08;0.77;;;9.80;43.20;;;;;;5116750;28;20724;-74
2022/11/03 03:17:01;;;;;;;2.30;0.70;;;10.00;33.10;;;;;;5115657;28;20476;-73
2022/11/03 03:19:37;;;;;;;1.83;0.90;;;10.20;14.30;;;;;;5116502;28;20427;-73
2022/11/03 03:22:14;;;;;;;1.88;0.90;;;10.20;1.00;;;;;;5116574;28;20459;-73
2022/11/03 03:24:48;;;;;;;1.70;0.70;;;10.20;1.00;;;;;;5116458;28;20481;-73
2022/11/03 03:27:19;;;;;;;1.30;0.80;;;10.10;1.00;;;;;;5117693;28;20926;-73
2022/11/03 03:29:50;;;;;;;1.23;0.70;;;10.10;1.00;;;;;;5117244;28;20463;-73
2022/11/03 03:32:21;;;;;;;2.53;0.90;;;10.00;1.00;;;;;;5116835;28;20455;-73
2022/11/03 03:34:50;;;;;;;2.73;0.90;;;9.90;1.00;;;;;;5116688;28;20773;-73
2022/11/03 03:37:20;;;;;;;1.90;0.75;;;9.90;6.30;;;;;;5115887;28;20408;-73
2022/11/03 03:39:52;;;;;;;2.08;0.80;;;9.80;20.00;;;;;;5115876;28;20526;-73
2022/11/03 03:42:22;;;;;;;1.40;0.80;;;9.70;23.70;;;;;;5116584;28;20785;-73
2022/11/03 03:44:50;;;;;;;1.63;0.90;;;9.70;34.50;;;;;;5116926;28;20428;-73
2022/11/03 03:47:22;;;;;;;1.83;0.90;;;9.70;43.50;;;;;;5117084;28;20428;-73
2022/11/03 03:49:49;;;;;;;1.70;0.90;;;9.70;43.30;;;;;;5116917;28;20904;-73
2022/11/03 03:52:17;;;;;;;1.80;0.80;;;9.70;47.70;;;;;;5116188;28;20869;-73
2022/11/03 03:54:44;;;;;;;2.20;1.00;;;9.70;56.00;;;;;;5115291;28;20786;-73
2022/11/03 03:57:15;;;;;;;3.20;0.90;;;9.70;48.50;;;;;;5115786;28;20741;-73
2022/11/03 03:59:43;;;;;;;2.30;0.82;;;9.70;39.50;;;;;;5115054;28;20784;-73
2022/11/03 04:02:11;;;;;;;2.50;1.13;;;9.70;32.40;;;;;;5114263;28;20420;-73
2022/11/03 04:04:38;;;;;;;3.00;1.00;;;9.70;30.00;;;;;;5114591;28;20464;-73
2022/11/03 04:09:50;;;;;;;4.10;1.00;;;9.80;31.10;;;;;;5116879;28;20479;-72
2022/11/03 04:23:18;;;;;;;3.10;0.98;;;9.50;42.10;;;;;;5115564;28;20410;-73
2022/11/03 04:25:49;;;;;;;2.87;1.40;;;9.50;46.20;;;;;;5115216;28;20464;-73
2022/11/03 04:28:16;;;;;;;3.05;1.15;;;9.50;43.40;;;;;;5115644;28;20464;-73
2022/11/03 04:30:45;;;;;;;2.10;1.00;;;9.40;27.70;;;;;;5118964;28;20458;-73
2022/11/03 04:33:15;;;;;;;2.30;1.10;;;9.30;26.80;;;;;;5118641;28;20428;-74
2022/11/03 04:35:45;;;;;;;4.03;1.35;;;9.30;21.30;;;;;;5118883;28;20448;-74
2022/11/03 04:38:22;;;;;;;1.50;1.00;;;9.10;21.70;;;;;;5118657;28;20412;-74
2022/11/03 04:40:53;;;;;;;2.40;1.10;;;8.90;45.50;;;;;;5119539;28;20451;-73
2022/11/03 04:43:22;;;;;;;2.83;1.20;;;8.90;68.30;;;;;;5119178;28;20784;-73
2022/11/03 04:45:50;;;;;;;2.70;1.10;;;8.90;78.70;;;;;;5120084;28;20535;-73
2022/11/03 04:48:22;;;;;;;2.90;1.20;;;8.90;90.90;;;;;;5118462;28;20427;-74
2022/11/03 04:50:51;;;;;;;2.45;1.00;;;9.00;87.40;;;;;;5117712;28;20424;-73
2022/11/03 04:53:20;;;;;;;7.28;1.02;;;9.10;82.80;;;;;;5110832;28;20781;-73
2022/11/03 04:55:50;;;;;;;2.13;1.00;;;9.10;77.70;;;;;;5118993;28;20420;-74
2022/11/03 04:58:20;;;;;;;1.80;1.00;;;9.10;70.70;;;;;;5118988;28;20512;-74
2022/11/03 05:00:47;;;;;;;1.80;1.10;;;9.00;75.00;;;;;;5118891;28;20420;-73
2022/11/03 05:03:22;;;;;;;2.90;1.13;;;9.00;82.50;;;;;;5118159;28;20477;-73
2022/11/03 05:05:49;;;;;;;4.88;1.00;;;8.90;93.30;;;;;;5119127;28;20427;-73
2022/11/03 05:08:18;;;;;;;2.83;1.20;;;8.90;99.90;;;;;;5110288;28;20432;-73
2022/11/03 05:10:46;;;;;;;2.33;1.20;;;9.00;99.90;;;;;;5118558;28;20855;-73
2022/11/03 05:13:21;;;;;;;3.70;1.10;;;9.00;97.20;;;;;;5118323;28;20416;-72
2022/11/03 05:15:52;;;;;;;3.80;1.20;;;9.00;95.50;;;;;;5118639;28;20454;-72
2022/11/03 05:18:22;;;;;;;2.50;1.20;;;9.00;99.90;;;;;;5118337;28;20824;-72
2022/11/03 05:20:56;;;;;;;3.38;1.20;;;9.00;97.00;;;;;;5117159;28;20474;-72
2022/11/03 05:23:23;;;;;;;7.63;1.50;;;9.00;91.60;;;;;;5118000;28;20456;-74
2022/11/03 05:25:53;;;;;;;3.07;1.20;;;9.00;90.80;;;;;;5118498;28;20456;-73
2022/11/03 05:28:23;;;;;;;2.40;1.20;;;8.90;96.80;;;;;;5118480;28;20465;-72
2022/11/03 05:30:52;;;;;;;3.00;1.20;;;8.80;99.70;;;;;;5108321;28;20452;-71
2022/11/03 05:33:28;;;;;;;2.35;1.10;;;8.80;99.90;;;;;;5117525;28;20765;-72
2022/11/03 05:35:58;;;;;;;2.20;1.10;;;8.70;99.90;;;;;;5116709;28;20463;-72
2022/11/03 05:38:29;;;;;;;2.60;1.10;;;8.70;99.90;;;;;;5117538;28;20466;-73
2022/11/03 05:40:55;;;;;;;1.70;1.00;;;8.70;99.90;;;;;;5116385;28;20476;-74
2022/11/03 05:43:23;;;;;;;2.10;1.10;;;8.70;99.90;;;;;;5116795;28;20436;-74
2022/11/03 05:45:53;;;;;;;3.15;1.20;;;8.80;99.90;;;;;;5117903;28;20428;-74
2022/11/03 05:48:27;;;;;;;1.50;0.90;;;8.80;99.90;;;;;;5116294;28;20793;-71
2022/11/03 05:50:58;;;;;;;2.17;0.90;;;8.80;99.90;;;;;;5117733;28;20439;-74
2022/11/03 05:53:29;;;;;;;3.53;1.00;;;8.80;99.90;;;;;;5116791;28;20419;-73
2022/11/03 05:55:59;;;;;;;2.63;0.80;;;8.70;99.90;;;;;;5118380;28;20237;-72
2022/11/03 05:58:29;;;;;;;3.10;1.00;;;8.70;99.90;;;;;;5117667;28;20804;-72
2022/11/03 06:00:57;;;;;;;2.90;0.90;;;8.70;99.90;;;;;;5116960;28;20480;-73
2022/11/03 06:03:28;;;;;;;2.53;0.77;;;8.60;99.90;;;;;;5117854;28;20531;-73
2022/11/03 06:05:56;;;;;;;1.63;0.70;;;8.60;99.90;;;;;;5118216;28;20488;-72
2022/11/03 06:08:30;;;;;;;2.23;0.77;;;8.60;99.90;;;;;;5118718;28;20484;-72
2022/11/03 06:11:00;;;;;;;2.00;0.90;;;8.60;99.90;;;;;;5118115;28;20482;-74
2022/11/03 06:13:32;;;;;;;2.43;0.70;;;8.50;99.90;;;;;;5117936;28;20893;-73
2022/11/03 06:16:01;;;;;;;2.83;0.80;;;8.50;99.90;;;;;;5117535;28;20484;-72
2022/11/03 06:18:34;;;;;;;1.67;0.80;;;8.50;99.90;;;;;;5116628;28;20511;-72
2022/11/03 06:21:07;;;;;;;2.27;0.80;;;8.40;99.90;;;;;;5117164;28;20457;-73
2022/11/03 06:23:36;;;;;;;1.40;0.70;;;8.40;99.90;;;;;;5116967;28;20440;-72
2022/11/03 06:26:14;;;;;;;2.20;0.80;;;8.30;99.90;;;;;;5116866;28;20821;-72
2022/11/03 06:28:41;;;;;;;2.30;0.90;;;8.30;99.90;;;;;;5115858;28;20519;-72
2022/11/03 06:31:18;;;;;;;1.57;0.80;;;8.20;99.90;;;;;;5112014;28;20643;-71
2022/11/03 06:33:46;;;;;;;3.67;0.90;;;8.20;99.90;;;;;;5117693;28;20510;-72
2022/11/03 06:36:18;;;;;;;2.33;0.80;;;8.10;99.90;;;;;;5117464;28;20804;-72
2022/11/03 06:38:48;;;;;;;3.53;0.90;;;8.20;99.90;;;;;;5116950;28;20464;-72
2022/11/03 06:41:23;;;;;;;2.60;0.80;;;8.30;99.90;;;;;;5118669;27;20483;-74
2022/11/03 06:43:50;;;;;;;1.73;1.07;;;8.40;99.90;;;;;;5126356;27;20741;-74
2022/11/03 06:46:21;;;;;;;5.07;0.90;;;8.60;99.90;;;;;;5118824;28;20449;-73
2022/11/03 06:48:49;;;;;;;1.50;0.87;;;8.60;99.90;;;;;;5119092;28;20517;-71
2022/11/03 06:51:19;;;;;;;1.63;1.07;;;8.70;99.90;;;;;;5110943;28;20488;-72
2022/11/03 06:53:50;;;;;;;3.30;0.80;;;8.90;99.90;;;;;;5118809;28;20466;-73
2022/11/03 06:56:21;;;;;;;3.03;0.93;;;8.90;95.60;;;;;;5117428;28;20473;-71
2022/11/03 06:58:49;;;;;;;3.37;1.00;;;8.90;98.50;;;;;;5117428;28;20452;-73
2022/11/03 07:01:21;;;;;;;1.30;0.90;;;9.00;98.10;;;;;;5116951;28;20889;-73
2022/11/03 07:03:50;;;;;;;2.07;0.70;;;8.90;86.80;;;;;;5114730;28;20479;-72
2022/11/03 07:06:23;;;;;;;1.87;0.80;;;8.80;93.20;;;;;;5108497;28;20525;-73
2022/11/03 07:08:52;;;;;;;2.20;0.80;;;8.80;98.70;;;;;;5115101;28;20485;-73
2022/11/03 07:11:21;;;;;;;1.77;0.90;;;8.90;99.30;;;;;;5108744;28;21057;-72
2022/11/03 07:13:49;;;;;;;3.67;1.10;;;8.90;91.90;;;;;;5116734;28;20771;-72
2022/11/03 07:16:22;;;;;;;2.30;0.87;;;8.80;84.50;;;;;;5117308;28;20453;-73
2022/11/03 07:18:50;;;;;;;2.43;0.93;;;8.80;91.90;;;;;;5116277;28;20445;-73
2022/11/03 07:21:35;;;;;;;;;;;8.80;93.60;;;;;;5116765;28;20344;-73
2022/11/03 07:24:02;;;;;;;;;;;8.70;97.50;;;;;;5104878;28;19927;-73
2022/11/03 07:26:29;;;;;;;;;;;8.80;95.70;;;;;;5117259;28;19963;-72
2022/11/03 07:28:56;;;;;;;;;;;8.90;90.80;;;;;;5116911;28;20015;-73
2022/11/03 07:31:24;;;;;;;;;;;9.00;84.00;;;;;;5116673;28;19974;-73
2022/11/03 07:33:55;;;;;;;;;;;9.00;81.70;;;;;;5116771;28;19958;-74
2022/11/03 07:36:24;;;;;;;;;;;9.10;70.80;;;;;;5116889;28;19923;-72
2022/11/03 07:38:52;;;;;;;;;;;9.10;58.00;;;;;;5116659;28;19942;-72
2022/11/03 07:41:20;;;;;;;;;;;9.20;55.90;;;;;;5116280;28;19958;-73
2022/11/03 07:43:51;;;;;;;;;;;9.20;50.30;;;;;;5117627;28;19924;-73
2022/11/03 07:46:19;;;;;;;;;;;9.30;45.30;;;;;;5115034;28;20443;-72
2022/11/03 07:48:47;;;;;;;;;;;9.30;43.70;;;;;;5115405;28;19924;-72
2022/11/03 07:51:20;;;;;;;;;;;9.20;40.90;;;;;;5115720;28;19962;-72
2022/11/03 07:53:47;;;;;;;;;;;9.20;47.20;;;;;;5115445;28;19942;-72
2022/11/03 07:56:16;;;;;;;;;;;9.30;45.20;;;;;;5115030;28;20223;-70
2022/11/03 07:58:43;;;;;;;;;;;9.30;52.00;;;;;;5116236;28;20018;-70
2022/11/03 08:01:20;;;;;;;;;;;9.40;45.80;;;;;;5115287;28;19923;-71
2022/11/03 08:03:47;;;;;;;;;;;9.50;41.60;;;;;;5117558;28;19919;-71
2022/11/03 08:06:14;;;;;;;;;;;9.50;36.40;;;;;;5119704;28;19946;-71
2022/11/03 08:08:42;;;;;;;;;;;9.60;28.80;;;;;;5120053;28;20038;-72
2022/11/03 08:11:09;;;;;;;;;;;9.60;31.90;;;;;;5119904;28;19962;-71
2022/11/03 08:13:35;;;;;;;;;;;9.70;23.50;;;;;;5119513;28;20013;-71
2022/11/03 08:16:02;;;;;;;;;;;9.70;18.90;;;;;;5119725;28;20020;-72
2022/11/03 08:18:29;;;;;;;;;;;9.80;4.30;;;;;;5118903;28;19923;-71
2022/11/03 08:20:55;;;;;;;;;;;9.90;20.80;;;;;;5119299;28;20224;-72
2022/11/03 08:23:22;;;;;;;;;;;10.00;1.00;;;;;;5119765;28;19951;-72
2022/11/03 08:25:50;;;;;;;;;;;10.00;1.00;;;;;;5120011;28;19992;-71
2022/11/03 08:28:17;;;;;;;;;;;10.10;1.00;;;;;;5119654;28;19926;-74
2022/11/03 08:30:44;;;;;;;;;;;10.20;1.00;;;;;;5120679;28;19991;-74
2022/11/03 08:33:10;;;;;;;;;;;10.20;1.00;;;;;;5120423;28;19963;-71
2022/11/03 08:35:37;;;;;;;;;;;10.30;1.00;;;;;;5118675;28;19972;-73
2022/11/03 08:38:04;;;;;;;2.03;0.70;;;10.30;1.00;;;;;;5118802;28;20277;-74
2022/11/03 08:40:31;;;;;;;3.30;0.80;;;10.40;1.00;;;;;;5119387;28;20986;-73
2022/11/03 08:43:01;;;;;;;3.73;0.70;;;10.60;1.00;;;;;;5118616;28;20509;-73
2022/11/03 08:45:29;;;;;;;1.77;0.60;;;10.60;1.00;;;;;;5117803;28;20457;-73
2022/11/03 08:47:56;;;;;;;4.47;0.73;;;10.70;1.00;;;;;;5117952;28;20484;-73
2022/11/03 08:50:23;;;;;;;2.90;0.77;;;10.70;1.00;;;;;;5118346;28;20460;-73
2022/11/03 08:52:50;;;;;;;0.97;0.60;;;10.80;1.00;;;;;;5117878;28;20445;-72
2022/11/03 08:55:17;;;;;;;1.00;0.60;;;10.90;1.00;;;;;;5118134;28;20478;-74
2022/11/03 08:57:44;;;;;;;1.13;0.70;;;10.90;1.00;;;;;;5117821;28;20440;-73
2022/11/03 09:00:15;;;;;;;0.90;0.50;;;11.00;1.00;;;;;;5118659;28;20872;-72
2022/11/03 09:02:42;;;;;;;0.90;0.60;;;11.10;1.00;;;;;;5117338;28;20454;-72
2022/11/03 09:05:11;;;;;;;1.63;0.60;;;11.40;1.00;;;;;;5118804;28;20449;-72
2022/11/03 09:07:38;;;;;;;2.20;0.60;;;11.50;1.00;;;;;;5118600;28;20448;-71
2022/11/03 09:10:06;;;;;;;1.00;0.50;;;11.60;1.00;;;;;;5118315;28;20492;-72
2022/11/03 09:12:33;;;;;;;2.73;0.60;;;11.60;1.00;;;;;;5117168;28;20921;-73
2022/11/03 09:15:00;;;;;;;0.93;0.60;;;11.60;1.00;;;;;;5117342;28;20493;-72
2022/11/03 09:17:29;;;;;;;1.57;0.53;;;11.60;1.00;;;;;;5116864;28;20473;-73
2022/11/03 09:19:56;;;;;;;0.90;0.50;;;11.70;1.00;;;;;;5117014;28;20449;-73
2022/11/03 09:22:23;;;;;;;0.70;0.50;;;11.70;1.00;;;;;;5118120;28;20487;-72
2022/11/03 09:24:50;;;;;;;1.10;0.50;;;11.80;1.00;;;;;;5117440;28;20551;-71
2022/11/03 09:27:17;;;;;;;3.77;0.40;;;11.70;1.00;;;;;;5117421;28;20494;-70
2022/11/03 09:29:45;;;;;;;1.20;0.50;;;11.90;1.00;;;;;;5115180;28;20814;-71
2022/11/03 09:32:12;;;;;;;1.37;0.50;;;12.00;1.00;;;;;;5115439;28;20868;-72
2022/11/03 09:34:40;;;;;;;1.10;0.50;;;12.10;99.90;;;;;;5116672;28;20460;-71
2022/11/03 09:37:07;;;;;;;1.97;0.60;;;12.20;99.90;;;;;;5116135;28;20480;-72
2022/11/03 09:39:34;;;;;;;1.57;1.03;;;12.20;99.90;;;;;;5116221;28;20565;-73
2022/11/03 09:42:02;;;;;;;0.80;0.50;;;12.20;99.90;;;;;;5116688;28;20444;-71
2022/11/03 09:44:32;;;;;;;1.63;0.60;;;12.30;99.90;;;;;;5117625;28;20453;-72
2022/11/03 09:46:59;;;;;;;2.07;0.50;;;12.30;37.30;;;;;;5118298;28;20451;-72
2022/11/03 09:49:28;;;;;;;1.30;0.60;;;12.30;62.00;;;;;;5116617;28;20594;-72
2022/11/03 09:51:56;;;;;;;1.07;0.60;;;12.30;99.90;;;;;;5116334;28;20923;-72
2022/11/03 09:54:25;;;;;;;1.60;0.80;;;12.30;99.90;;;;;;5116535;28;20491;-73
2022/11/03 09:56:57;;;;;;;1.17;0.60;;;12.40;99.90;;;;;;5115345;28;20452;-72
2022/11/03 09:59:24;;;;;;;1.13;0.30;;;12.40;99.90;;;;;;5119649;27;20460;-71
2022/11/03 10:01:53;;;;;;;3.20;0.80;;;12.50;5.20;;;;;;5135895;27;20831;-72
2022/11/03 10:04:27;;;;;;;1.00;0.53;;;12.50;1.00;;;;;;5127530;27;20453;-71
2022/11/03 10:06:56;;;;;;;1.43;0.50;;;12.60;19.80;;;;;;5114642;28;20455;-72
2022/11/03 10:09:24;;;;;;;3.20;0.60;;;12.70;1.00;;;;;;5100692;28;20543;-71
2022/11/03 10:11:53;;;;;;;1.23;0.50;;;12.70;1.00;;;;;;5093946;28;20493;-72
2022/11/03 10:14:21;;;;;;;4.77;0.70;;;12.70;1.00;;;;;;5095594;28;20477;-72
2022/11/03 10:16:56;;;;;;;1.10;0.50;;;12.70;1.00;;;;;;5095222;28;20442;-71
2022/11/03 10:19:26;;;;;;;0.70;0.50;;;12.70;1.00;;;;;;5096201;28;20849;-72
2022/11/03 10:21:53;;;;;;;0.70;0.40;;;12.70;1.00;;;;;;5114214;28;20453;-70
2022/11/03 10:24:21;;;;;;;1.10;0.50;;;12.80;1.00;;;;;;5115872;28;20826;-72
2022/11/03 10:26:51;;;;;;;0.70;0.47;;;12.90;1.00;;;;;;5115621;28;20851;-71
2022/11/03 10:29:20;;;;;;;1.53;0.40;;;13.00;1.00;;;;;;5107697;28;20953;-71
2022/11/03 10:31:50;;;;;;;1.23;0.50;;;13.10;1.00;;;;;;5116401;28;20509;-71
2022/11/03 10:34:35;;;;;;;0.90;0.40;;;13.20;99.90;;;;;;5116925;28;20457;-72
2022/11/03 10:37:19;;;;;;;0.87;0.53;;;13.20;99.90;;;;;;5116592;28;20448;-71
2022/11/03 10:39:48;;;;;;;1.70;0.60;;;13.20;1.00;;;;;;5103225;28;20580;-72
2022/11/03 10:42:20;;;;;;;0.50;0.37;;;13.30;1.00;;;;;;5112740;28;20513;-71
2022/11/03 10:44:48;;;;;;;1.10;0.50;;;13.30;99.90;;;;;;5108919;28;20463;-73
2022/11/03 10:47:25;;;;;;;1.20;0.40;;;13.20;99.90;;;;;;5107702;28;20572;-69
2022/11/03 10:49:54;;;;;;;1.20;0.60;;;13.20;99.90;;;;;;5099509;28;20476;-72
2022/11/03 10:52:24;;;;;;;1.37;0.60;;;13.20;99.90;;;;;;5114209;28;20445;-71
2022/11/03 10:54:58;;;;;;;1.57;0.50;;;13.20;99.90;;;;;;5114998;28;20833;-72
2022/11/03 10:57:27;;;;;;;1.37;0.60;;;13.20;99.90;;;;;;5115213;28;20445;-71
2022/11/03 10:59:55;;;;;;;1.97;0.57;;;13.40;99.90;;;;;;5110760;28;20440;-72
2022/11/03 11:02:26;;;;;;;1.10;0.50;;;13.40;99.90;;;;;;5114623;28;20449;-71
2022/11/03 11:04:59;;;;;;;2.70;0.57;;;13.40;99.90;;;;;;5115245;28;20769;-70
2022/11/03 11:07:32;;;;;;;1.00;0.63;;;13.40;99.90;;;;;;5115274;28;20475;-71
2022/11/03 11:10:07;;;;;;;1.73;0.60;;;13.40;99.90;;;;;;5116489;28;20946;-71
2022/11/03 11:12:34;;;;;;;1.90;0.70;;;13.40;99.90;;;;;;5114997;28;20443;-71
2022/11/03 11:15:06;;;;;;;0.73;0.50;;;13.40;99.90;;;;;;5115105;28;20524;-72
2022/11/03 11:17:48;;;;;;;1.10;0.60;;;13.50;99.90;;;;;;5114959;28;20448;-71
2022/11/03 11:20:41;;;;;;;0.73;0.60;;;13.50;99.90;;;;;;5111702;28;20440;-72
2022/11/03 11:23:48;;;;;;;1.63;0.60;;;13.60;99.90;;;;;;5114723;28;20563;-72
2022/11/03 11:26:31;;;;;;;2.20;0.80;;;13.70;99.90;;;;;;5114503;28;20459;-72
2022/11/03 11:29:45;;;;;;;1.60;0.70;;;13.80;99.90;;;;;;5112797;28;20444;-71
2022/11/03 11:32:51;;;;;;;1.10;0.53;;;13.80;99.90;;;;;;5097706;28;20823;-72
2022/11/03 11:36:06;;;;;;;0.80;0.50;;;13.90;99.90;;;;;;5114845;28;20974;-72
2022/11/03 11:39:00;;;;;;;0.90;0.60;;;14.00;99.90;;;;;;5097817;28;20487;-72
2022/11/03 11:42:04;;;;;;;1.27;0.40;;;14.10;99.90;;;;;;5076871;28;20460;-72
2022/11/03 11:45:05;;;;;;;1.07;0.60;;;14.20;99.90;;;;;;5115228;28;20448;-72
2022/11/03 11:47:48;;;;;;;0.80;0.50;;;14.30;99.90;;;;;;5118201;28;20838;-72
2022/11/03 11:50:33;;;;;;;1.17;0.60;;;14.20;99.90;;;;;;5117227;28;20532;-73
2022/11/03 11:53:10;;;;;;;1.00;0.40;;;14.30;99.90;;;;;;5117715;28;20483;-71
2022/11/03 11:55:42;;;;;;;1.10;0.60;;;14.30;99.90;;;;;;5125066;27;20451;-72
2022/11/03 11:58:25;;;;;;;1.63;0.60;;;14.30;99.90;;;;;;5118915;27;20531;-72
2022/11/03 12:00:56;;;;;;;1.40;0.70;;;14.30;99.90;;;;;;5116291;28;20543;-72
2022/11/03 12:03:31;;;;;;;1.10;0.60;;;14.40;99.90;;;;;;5116897;28;20970;-73
2022/11/03 12:05:59;;;;;;;1.20;0.57;;;14.40;99.90;;;;;;5118148;28;20880;-73
2022/11/03 12:08:29;;;;;;;2.37;0.60;;;14.40;99.90;;;;;;5118175;28;20497;-73
2022/11/03 12:11:02;;;;;;;1.13;0.50;;;14.40;99.90;;;;;;5118289;28;20480;-73
2022/11/03 12:13:51;;;;;;;1.07;0.60;;;14.40;99.90;;;;;;5119226;28;20456;-73
2022/11/03 12:16:33;;;;;;;0.83;0.50;;;14.40;99.90;;;;;;5112254;28;20491;-72
2022/11/03 12:19:34;;;;;;;2.10;0.60;;;14.40;99.90;;;;;;5117790;28;20505;-72
2022/11/03 12:22:02;;;;;;;1.10;0.60;;;14.50;99.90;;;;;;5119175;27;20451;-72
2022/11/03 12:24:48;;;;;;;1.67;0.60;;;14.60;99.90;;;;;;5116494;28;20879;-73
2022/11/03 12:27:39;;;;;;;0.80;0.50;;;14.60;99.90;;;;;;5117806;28;20895;-72
2022/11/03 12:30:13;;;;;;;0.87;0.60;;;14.70;99.90;;;;;;5118254;28;20476;-73
2022/11/03 12:32:42;;;;;;;0.97;0.60;;;14.70;99.90;;;;;;5119065;28;20450;-72
2022/11/03 12:35:13;;;;;;;0.90;0.50;;;14.70;99.90;;;;;;5118021;28;20449;-73
2022/11/03 12:37:40;;;;;;;0.90;0.50;;;14.70;99.90;;;;;;5117739;28;20440;-72
2022/11/03 12:40:08;;;;;;;1.30;0.50;;;14.60;99.90;;;;;;5115487;28;20579;-72
2022/11/03 12:42:35;;;;;;;0.80;0.50;;;14.60;99.90;;;;;;5116359;28;20452;-72
2022/11/03 12:45:03;;;;;;;1.10;0.70;;;14.60;99.90;;;;;;5115858;28;20482;-72
2022/11/03 12:47:30;;;;;;;1.57;0.60;;;14.60;99.90;;;;;;5116590;28;20445;-72
2022/11/03 12:49:58;;;;;;;0.90;0.50;;;14.50;99.90;;;;;;5116111;28;20854;-72
2022/11/03 12:52:25;;;;;;;1.60;0.60;;;14.50;99.90;;;;;;5116129;28;20472;-72
2022/11/03 12:54:52;;;;;;;3.50;0.63;;;14.50;99.90;;;;;;5116943;28;20459;-73
2022/11/03 12:57:19;;;;;;;2.20;0.53;;;14.50;99.90;;;;;;5116541;28;20227;-72
2022/11/03 12:59:46;;;;;;;2.10;0.60;;;14.50;99.90;;;;;;5113135;28;20440;-72
2022/11/03 13:02:13;;;;;;;1.90;0.60;;;14.40;99.90;;;;;;5113529;28;20501;-73
2022/11/03 13:04:40;;;;;;;2.30;0.50;;;14.40;99.90;;;;;;5113108;28;20861;-72
2022/11/03 13:07:08;;;;;;;1.00;0.70;;;14.30;99.90;;;;;;5114830;28;20445;-73
2022/11/03 13:09:35;;;;;;;1.90;0.80;;;14.30;99.90;;;;;;5118167;28;20472;-71
2022/11/03 13:14:46;;;;;;;1.20;0.60;;;14.30;99.90;;;;;;5115728;28;21140;-72
2022/11/03 13:17:13;;;;;;;1.00;0.60;;;14.30;99.90;;;;;;5116639;28;20445;-72
2022/11/03 13:19:41;;;;;;;0.90;0.60;;;14.20;99.90;;;;;;5115692;28;20478;-72
2022/11/03 13:22:09;;;;;;;1.00;0.90;;;14.20;99.90;;;;;;5115856;28;20472;-71
2022/11/03 13:24:36;;;;;;;1.50;0.73;;;14.30;99.90;;;;;;5115702;28;20456;-72
2022/11/03 13:27:03;;;;;;;0.93;0.60;;;14.20;99.90;;;;;;5115528;28;20545;-72
2022/11/03 13:29:30;;;;;;;0.90;0.60;;;14.20;99.90;;;;;;5115612;28;20513;-72
2022/11/03 13:31:57;;;;;;;1.20;0.70;;;14.30;99.90;;;;;;5114307;28;20472;-72
2022/11/03 13:34:24;;;;;;;2.20;0.90;;;14.20;99.90;;;;;;5116114;28;20472;-72
2022/11/03 13:36:51;;;;;;;2.07;0.67;;;14.20;99.90;;;;;;5117921;28;20440;-72
2022/11/03 13:39:20;;;;;;;2.30;0.60;;;14.30;99.90;;;;;;5116693;28;20541;-73
2022/11/03 13:41:47;;;;;;;1.57;0.73;;;14.30;99.90;;;;;;5118176;28;20467;-73
2022/11/03 13:44:14;;;;;;;1.57;0.70;;;14.30;99.90;;;;;;5115847;28;20843;-73
2022/11/03 13:46:41;;;;;;;2.00;0.70;;;14.30;99.90;;;;;;5115489;28;20437;-72